sensor_id;sensor_type;location;lat;lon;timestamp;P1;durP1;ratioP1;P2;durP2;ratioP2
12591;SDS011;6361;52.120;5.108;2022-11-06T00:00:35;13.07;;;5.80;;
12591;SDS011;6361;52.120;5.108;2022-11-06T00:03:01;15.40;;;5.80;;
12591;SDS011;6361;52.120;5.108;2022-11-06T00:05:28;18.02;;;5.88;;
12591;SDS011;6361;52.120;5.108;2022-11-06T00:08:13;18.00;;;5.75;;
12591;SDS011;6361;52.120;5.108;2022-11-06T00:10:39;11.45;;;5.53;;
12591;SDS011;6361;52.120;5.108;2022-11-06T00:13:05;11.15;;;5.38;;
12591;SDS011;6361;52.120;5.108;2022-11-06T00:15:30;13.60;;;6.03;;
12591;SDS011;6361;52.120;5.108;2022-11-06T00:17:56;20.20;;;6.60;;
12591;SDS011;6361;52.120;5.108;2022-11-06T00:20:21;12.00;;;6.03;;
12591;SDS011;6361;52.120;5.108;2022-11-06T00:22:47;15.45;;;6.05;;
12591;SDS011;6361;52.120;5.108;2022-11-06T00:25:12;14.93;;;5.70;;
12591;SDS011;6361;52.120;5.108;2022-11-06T00:27:38;17.08;;;5.72;;
12591;SDS011;6361;52.120;5.108;2022-11-06T00:30:04;12.65;;;6.00;;
12591;SDS011;6361;52.120;5.108;2022-11-06T00:32:31;13.25;;;5.70;;
12591;SDS011;6361;52.120;5.108;2022-11-06T00:34:57;12.27;;;6.10;;
12591;SDS011;6361;52.120;5.108;2022-11-06T00:37:22;18.60;;;6.68;;
12591;SDS011;6361;52.120;5.108;2022-11-06T00:39:47;14.70;;;6.03;;
12591;SDS011;6361;52.120;5.108;2022-11-06T00:42:13;12.95;;;6.30;;
12591;SDS011;6361;52.120;5.108;2022-11-06T00:44:38;15.00;;;5.68;;
12591;SDS011;6361;52.120;5.108;2022-11-06T00:47:03;16.25;;;5.43;;
12591;SDS011;6361;52.120;5.108;2022-11-06T00:49:29;14.00;;;5.55;;
12591;SDS011;6361;52.120;5.108;2022-11-06T00:51:54;11.60;;;5.50;;
12591;SDS011;6361;52.120;5.108;2022-11-06T00:54:20;12.27;;;5.60;;
12591;SDS011;6361;52.120;5.108;2022-11-06T00:56:45;14.35;;;5.75;;
12591;SDS011;6361;52.120;5.108;2022-11-06T00:59:11;11.70;;;5.25;;
12591;SDS011;6361;52.120;5.108;2022-11-06T01:01:39;11.27;;;5.43;;
12591;SDS011;6361;52.120;5.108;2022-11-06T01:04:16;14.57;;;5.45;;
12591;SDS011;6361;52.120;5.108;2022-11-06T01:06:44;16.95;;;5.32;;
12591;SDS011;6361;52.120;5.108;2022-11-06T01:09:12;17.50;;;6.15;;
12591;SDS011;6361;52.120;5.108;2022-11-06T01:11:43;13.43;;;6.13;;
12591;SDS011;6361;52.120;5.108;2022-11-06T01:14:13;13.57;;;5.65;;
12591;SDS011;6361;52.120;5.108;2022-11-06T01:16:39;12.18;;;5.68;;
12591;SDS011;6361;52.120;5.108;2022-11-06T01:19:05;11.07;;;5.32;;
12591;SDS011;6361;52.120;5.108;2022-11-06T01:21:35;12.95;;;5.78;;
12591;SDS011;6361;52.120;5.108;2022-11-06T01:24:03;12.18;;;5.43;;
12591;SDS011;6361;52.120;5.108;2022-11-06T01:26:31;18.13;;;5.75;;
12591;SDS011;6361;52.120;5.108;2022-11-06T01:28:57;15.65;;;5.93;;
12591;SDS011;6361;52.120;5.108;2022-11-06T01:31:24;11.70;;;5.40;;
12591;SDS011;6361;52.120;5.108;2022-11-06T01:33:53;11.65;;;5.47;;
12591;SDS011;6361;52.120;5.108;2022-11-06T01:36:19;12.75;;;5.47;;
12591;SDS011;6361;52.120;5.108;2022-11-06T01:38:46;15.43;;;5.85;;
12591;SDS011;6361;52.120;5.108;2022-11-06T01:41:20;11.93;;;5.65;;
12591;SDS011;6361;52.120;5.108;2022-11-06T01:43:57;11.98;;;5.20;;
12591;SDS011;6361;52.120;5.108;2022-11-06T01:46:28;14.82;;;5.30;;
12591;SDS011;6361;52.120;5.108;2022-11-06T01:51:33;9.88;;;5.20;;
12591;SDS011;6361;52.120;5.108;2022-11-06T01:54:02;13.18;;;5.78;;
12591;SDS011;6361;52.120;5.108;2022-11-06T01:56:30;15.63;;;5.45;;
12591;SDS011;6361;52.120;5.108;2022-11-06T01:58:55;11.02;;;5.00;;
12591;SDS011;6361;52.120;5.108;2022-11-06T02:01:21;11.48;;;5.18;;
12591;SDS011;6361;52.120;5.108;2022-11-06T02:03:52;14.40;;;4.95;;
12591;SDS011;6361;52.120;5.108;2022-11-06T02:06:21;14.38;;;5.28;;
12591;SDS011;6361;52.120;5.108;2022-11-06T02:08:47;13.85;;;5.47;;
12591;SDS011;6361;52.120;5.108;2022-11-06T02:11:12;11.85;;;4.88;;
12591;SDS011;6361;52.120;5.108;2022-11-06T02:27:27;15.15;;;5.10;;
12591;SDS011;6361;52.120;5.108;2022-11-06T02:29:58;16.95;;;4.65;;
12591;SDS011;6361;52.120;5.108;2022-11-06T02:37:48;15.73;;;4.60;;
12591;SDS011;6361;52.120;5.108;2022-11-06T02:40:17;11.35;;;4.70;;
12591;SDS011;6361;52.120;5.108;2022-11-06T02:42:44;12.73;;;4.60;;
12591;SDS011;6361;52.120;5.108;2022-11-06T02:45:13;12.57;;;4.90;;
12591;SDS011;6361;52.120;5.108;2022-11-06T02:47:41;16.17;;;4.97;;
12591;SDS011;6361;52.120;5.108;2022-11-06T02:50:21;13.43;;;4.60;;
12591;SDS011;6361;52.120;5.108;2022-11-06T02:52:53;15.95;;;4.60;;
12591;SDS011;6361;52.120;5.108;2022-11-06T02:55:21;9.52;;;4.43;;
12591;SDS011;6361;52.120;5.108;2022-11-06T02:57:52;15.02;;;4.97;;
12591;SDS011;6361;52.120;5.108;2022-11-06T03:00:25;15.70;;;4.82;;
12591;SDS011;6361;52.120;5.108;2022-11-06T03:08:00;16.30;;;4.60;;
12591;SDS011;6361;52.120;5.108;2022-11-06T03:10:31;13.82;;;4.53;;
12591;SDS011;6361;52.120;5.108;2022-11-06T03:15:46;12.93;;;4.50;;
12591;SDS011;6361;52.120;5.108;2022-11-06T03:18:29;16.20;;;5.07;;
12591;SDS011;6361;52.120;5.108;2022-11-06T03:23:49;11.23;;;4.28;;
12591;SDS011;6361;52.120;5.108;2022-11-06T03:26:22;14.63;;;4.68;;
12591;SDS011;6361;52.120;5.108;2022-11-06T03:28:52;10.32;;;4.90;;
12591;SDS011;6361;52.120;5.108;2022-11-06T03:31:22;10.35;;;4.32;;
12591;SDS011;6361;52.120;5.108;2022-11-06T03:34:11;11.23;;;4.20;;
12591;SDS011;6361;52.120;5.108;2022-11-06T03:36:42;13.07;;;5.00;;
12591;SDS011;6361;52.120;5.108;2022-11-06T03:39:24;14.10;;;4.53;;
12591;SDS011;6361;52.120;5.108;2022-11-06T03:41:53;13.07;;;4.90;;
12591;SDS011;6361;52.120;5.108;2022-11-06T03:44:28;11.57;;;4.82;;
12591;SDS011;6361;52.120;5.108;2022-11-06T03:47:17;14.93;;;4.65;;
12591;SDS011;6361;52.120;5.108;2022-11-06T03:49:49;10.85;;;4.68;;
12591;SDS011;6361;52.120;5.108;2022-11-06T03:52:30;13.25;;;4.78;;
12591;SDS011;6361;52.120;5.108;2022-11-06T03:55:08;15.38;;;4.80;;
12591;SDS011;6361;52.120;5.108;2022-11-06T03:57:38;13.27;;;4.72;;
12591;SDS011;6361;52.120;5.108;2022-11-06T04:00:07;11.77;;;4.57;;
12591;SDS011;6361;52.120;5.108;2022-11-06T04:02:34;15.20;;;4.45;;
12591;SDS011;6361;52.120;5.108;2022-11-06T04:05:03;13.80;;;4.95;;
12591;SDS011;6361;52.120;5.108;2022-11-06T04:07:34;15.98;;;4.78;;
12591;SDS011;6361;52.120;5.108;2022-11-06T04:10:02;14.57;;;5.25;;
12591;SDS011;6361;52.120;5.108;2022-11-06T04:12:48;13.63;;;4.32;;
12591;SDS011;6361;52.120;5.108;2022-11-06T04:15:47;9.48;;;4.68;;
12591;SDS011;6361;52.120;5.108;2022-11-06T04:18:18;13.38;;;4.53;;
12591;SDS011;6361;52.120;5.108;2022-11-06T04:20:56;11.38;;;4.68;;
12591;SDS011;6361;52.120;5.108;2022-11-06T04:23:47;13.70;;;5.05;;
12591;SDS011;6361;52.120;5.108;2022-11-06T04:37:48;13.77;;;4.70;;
12591;SDS011;6361;52.120;5.108;2022-11-06T04:40:30;12.73;;;5.15;;
12591;SDS011;6361;52.120;5.108;2022-11-06T04:43:12;13.20;;;4.47;;
12591;SDS011;6361;52.120;5.108;2022-11-06T04:45:41;10.35;;;4.20;;
12591;SDS011;6361;52.120;5.108;2022-11-06T04:48:10;13.32;;;5.03;;
12591;SDS011;6361;52.120;5.108;2022-11-06T04:50:38;12.43;;;4.30;;
12591;SDS011;6361;52.120;5.108;2022-11-06T04:53:07;15.18;;;4.78;;
12591;SDS011;6361;52.120;5.108;2022-11-06T04:55:49;14.68;;;5.10;;
12591;SDS011;6361;52.120;5.108;2022-11-06T04:58:16;9.25;;;4.25;;
12591;SDS011;6361;52.120;5.108;2022-11-06T05:00:46;11.15;;;4.00;;
12591;SDS011;6361;52.120;5.108;2022-11-06T05:03:13;11.95;;;3.90;;
12591;SDS011;6361;52.120;5.108;2022-11-06T05:05:38;13.13;;;4.03;;
12591;SDS011;6361;52.120;5.108;2022-11-06T05:08:04;8.68;;;3.92;;
12591;SDS011;6361;52.120;5.108;2022-11-06T05:10:29;12.65;;;3.92;;
12591;SDS011;6361;52.120;5.108;2022-11-06T05:12:54;12.85;;;4.03;;
12591;SDS011;6361;52.120;5.108;2022-11-06T05:15:20;11.55;;;3.67;;
12591;SDS011;6361;52.120;5.108;2022-11-06T05:17:45;12.68;;;3.78;;
12591;SDS011;6361;52.120;5.108;2022-11-06T05:20:11;10.63;;;3.50;;
12591;SDS011;6361;52.120;5.108;2022-11-06T05:22:42;11.48;;;3.63;;
12591;SDS011;6361;52.120;5.108;2022-11-06T05:25:32;14.63;;;3.75;;
12591;SDS011;6361;52.120;5.108;2022-11-06T05:27:59;8.65;;;3.55;;
12591;SDS011;6361;52.120;5.108;2022-11-06T05:30:25;9.80;;;3.20;;
12591;SDS011;6361;52.120;5.108;2022-11-06T05:32:51;10.80;;;3.60;;
12591;SDS011;6361;52.120;5.108;2022-11-06T05:35:17;11.90;;;3.67;;
12591;SDS011;6361;52.120;5.108;2022-11-06T05:37:43;9.25;;;3.67;;
12591;SDS011;6361;52.120;5.108;2022-11-06T05:40:08;9.20;;;3.40;;
12591;SDS011;6361;52.120;5.108;2022-11-06T05:42:37;15.32;;;3.90;;
12591;SDS011;6361;52.120;5.108;2022-11-06T05:45:07;11.00;;;3.00;;
12591;SDS011;6361;52.120;5.108;2022-11-06T05:47:33;9.35;;;2.85;;
12591;SDS011;6361;52.120;5.108;2022-11-06T05:49:58;7.85;;;3.00;;
12591;SDS011;6361;52.120;5.108;2022-11-06T05:52:24;9.25;;;2.88;;
12591;SDS011;6361;52.120;5.108;2022-11-06T05:54:49;10.90;;;3.15;;
12591;SDS011;6361;52.120;5.108;2022-11-06T05:57:15;12.68;;;3.42;;
12591;SDS011;6361;52.120;5.108;2022-11-06T05:59:41;15.57;;;4.13;;
12591;SDS011;6361;52.120;5.108;2022-11-06T06:02:06;8.82;;;3.33;;
12591;SDS011;6361;52.120;5.108;2022-11-06T06:04:32;13.13;;;3.60;;
12591;SDS011;6361;52.120;5.108;2022-11-06T06:06:57;15.80;;;4.00;;
12591;SDS011;6361;52.120;5.108;2022-11-06T06:09:23;11.55;;;3.30;;
12591;SDS011;6361;52.120;5.108;2022-11-06T06:11:52;9.65;;;3.25;;
12591;SDS011;6361;52.120;5.108;2022-11-06T06:14:17;14.63;;;3.40;;
12591;SDS011;6361;52.120;5.108;2022-11-06T06:16:43;9.15;;;3.17;;
12591;SDS011;6361;52.120;5.108;2022-11-06T06:19:09;11.20;;;3.05;;
12591;SDS011;6361;52.120;5.108;2022-11-06T06:21:34;10.05;;;3.20;;
12591;SDS011;6361;52.120;5.108;2022-11-06T06:24:00;11.77;;;3.50;;
12591;SDS011;6361;52.120;5.108;2022-11-06T06:26:26;8.57;;;3.35;;
12591;SDS011;6361;52.120;5.108;2022-11-06T06:28:52;10.98;;;3.35;;
12591;SDS011;6361;52.120;5.108;2022-11-06T06:31:17;11.00;;;3.67;;
12591;SDS011;6361;52.120;5.108;2022-11-06T06:33:42;10.45;;;3.10;;
12591;SDS011;6361;52.120;5.108;2022-11-06T06:36:08;12.48;;;3.80;;
12591;SDS011;6361;52.120;5.108;2022-11-06T06:38:33;10.05;;;2.92;;
12591;SDS011;6361;52.120;5.108;2022-11-06T06:40:59;8.95;;;2.83;;
12591;SDS011;6361;52.120;5.108;2022-11-06T06:43:26;10.88;;;3.30;;
12591;SDS011;6361;52.120;5.108;2022-11-06T06:45:51;10.93;;;3.40;;
12591;SDS011;6361;52.120;5.108;2022-11-06T06:48:17;9.35;;;3.22;;
12591;SDS011;6361;52.120;5.108;2022-11-06T06:50:42;13.57;;;3.63;;
12591;SDS011;6361;52.120;5.108;2022-11-06T06:53:08;11.77;;;3.17;;
12591;SDS011;6361;52.120;5.108;2022-11-06T06:55:33;15.63;;;3.42;;
12591;SDS011;6361;52.120;5.108;2022-11-06T06:57:58;7.30;;;3.10;;
12591;SDS011;6361;52.120;5.108;2022-11-06T07:00:24;9.85;;;4.00;;
12591;SDS011;6361;52.120;5.108;2022-11-06T07:02:51;7.93;;;3.20;;
12591;SDS011;6361;52.120;5.108;2022-11-06T07:05:16;9.00;;;3.05;;
12591;SDS011;6361;52.120;5.108;2022-11-06T07:07:42;10.45;;;3.15;;
12591;SDS011;6361;52.120;5.108;2022-11-06T07:10:07;9.73;;;3.05;;
12591;SDS011;6361;52.120;5.108;2022-11-06T07:12:32;12.20;;;3.33;;
12591;SDS011;6361;52.120;5.108;2022-11-06T07:14:58;12.02;;;3.67;;
12591;SDS011;6361;52.120;5.108;2022-11-06T07:17:23;8.25;;;3.20;;
12591;SDS011;6361;52.120;5.108;2022-11-06T07:19:49;9.23;;;2.70;;
12591;SDS011;6361;52.120;5.108;2022-11-06T07:22:14;7.95;;;3.10;;
12591;SDS011;6361;52.120;5.108;2022-11-06T07:24:40;11.20;;;3.30;;
12591;SDS011;6361;52.120;5.108;2022-11-06T07:27:05;10.48;;;3.55;;
12591;SDS011;6361;52.120;5.108;2022-11-06T07:29:31;8.90;;;3.78;;
12591;SDS011;6361;52.120;5.108;2022-11-06T07:31:56;12.30;;;3.38;;
12591;SDS011;6361;52.120;5.108;2022-11-06T07:34:21;9.43;;;3.10;;
12591;SDS011;6361;52.120;5.108;2022-11-06T07:36:47;8.98;;;3.28;;
12591;SDS011;6361;52.120;5.108;2022-11-06T07:39:12;9.90;;;2.90;;
12591;SDS011;6361;52.120;5.108;2022-11-06T07:41:37;12.68;;;3.45;;
12591;SDS011;6361;52.120;5.108;2022-11-06T07:44:03;8.35;;;3.50;;
12591;SDS011;6361;52.120;5.108;2022-11-06T07:46:28;9.43;;;3.30;;
12591;SDS011;6361;52.120;5.108;2022-11-06T07:48:53;8.93;;;3.67;;
12591;SDS011;6361;52.120;5.108;2022-11-06T07:51:19;10.65;;;3.60;;
12591;SDS011;6361;52.120;5.108;2022-11-06T07:53:44;12.10;;;4.22;;
12591;SDS011;6361;52.120;5.108;2022-11-06T07:56:10;7.90;;;3.45;;
12591;SDS011;6361;52.120;5.108;2022-11-06T07:58:35;7.38;;;2.85;;
12591;SDS011;6361;52.120;5.108;2022-11-06T08:01:01;10.95;;;3.22;;
12591;SDS011;6361;52.120;5.108;2022-11-06T08:03:27;10.82;;;3.45;;
12591;SDS011;6361;52.120;5.108;2022-11-06T08:05:54;10.60;;;3.22;;
12591;SDS011;6361;52.120;5.108;2022-11-06T08:08:20;9.95;;;3.40;;
12591;SDS011;6361;52.120;5.108;2022-11-06T08:10:45;7.75;;;3.35;;
12591;SDS011;6361;52.120;5.108;2022-11-06T08:13:15;9.30;;;3.30;;
12591;SDS011;6361;52.120;5.108;2022-11-06T08:15:41;12.68;;;3.50;;
12591;SDS011;6361;52.120;5.108;2022-11-06T08:18:07;10.82;;;3.20;;
12591;SDS011;6361;52.120;5.108;2022-11-06T08:20:33;13.43;;;3.63;;
12591;SDS011;6361;52.120;5.108;2022-11-06T08:22:59;8.30;;;3.17;;
12591;SDS011;6361;52.120;5.108;2022-11-06T08:25:26;7.22;;;3.10;;
12591;SDS011;6361;52.120;5.108;2022-11-06T08:27:56;10.30;;;3.10;;
12591;SDS011;6361;52.120;5.108;2022-11-06T08:30:22;10.32;;;3.30;;
12591;SDS011;6361;52.120;5.108;2022-11-06T08:32:48;10.55;;;2.72;;
12591;SDS011;6361;52.120;5.108;2022-11-06T08:35:13;10.55;;;3.30;;
12591;SDS011;6361;52.120;5.108;2022-11-06T08:37:39;7.03;;;2.38;;
12591;SDS011;6361;52.120;5.108;2022-11-06T08:40:05;11.52;;;2.88;;
12591;SDS011;6361;52.120;5.108;2022-11-06T08:42:31;6.60;;;2.60;;
12591;SDS011;6361;52.120;5.108;2022-11-06T08:44:56;11.38;;;2.78;;
12591;SDS011;6361;52.120;5.108;2022-11-06T08:47:21;8.93;;;2.67;;
12591;SDS011;6361;52.120;5.108;2022-11-06T08:49:47;7.78;;;2.53;;
12591;SDS011;6361;52.120;5.108;2022-11-06T08:52:12;7.20;;;2.28;;
12591;SDS011;6361;52.120;5.108;2022-11-06T08:54:37;7.30;;;2.42;;
12591;SDS011;6361;52.120;5.108;2022-11-06T08:57:03;9.55;;;2.95;;
12591;SDS011;6361;52.120;5.108;2022-11-06T08:59:28;6.75;;;2.35;;
12591;SDS011;6361;52.120;5.108;2022-11-06T09:01:55;5.70;;;2.50;;
12591;SDS011;6361;52.120;5.108;2022-11-06T09:04:21;9.82;;;2.67;;
12591;SDS011;6361;52.120;5.108;2022-11-06T09:06:46;6.38;;;2.40;;
12591;SDS011;6361;52.120;5.108;2022-11-06T09:09:12;5.82;;;2.33;;
12591;SDS011;6361;52.120;5.108;2022-11-06T09:11:37;11.05;;;2.42;;
12591;SDS011;6361;52.120;5.108;2022-11-06T09:14:02;8.77;;;2.35;;
12591;SDS011;6361;52.120;5.108;2022-11-06T09:16:28;9.57;;;2.30;;
12591;SDS011;6361;52.120;5.108;2022-11-06T09:18:53;8.65;;;2.42;;
12591;SDS011;6361;52.120;5.108;2022-11-06T09:21:20;9.27;;;3.03;;
12591;SDS011;6361;52.120;5.108;2022-11-06T09:23:45;8.60;;;2.17;;
12591;SDS011;6361;52.120;5.108;2022-11-06T09:26:12;7.20;;;2.40;;
12591;SDS011;6361;52.120;5.108;2022-11-06T09:28:38;12.63;;;2.50;;
12591;SDS011;6361;52.120;5.108;2022-11-06T09:31:03;10.15;;;2.42;;
12591;SDS011;6361;52.120;5.108;2022-11-06T09:33:29;10.10;;;2.20;;
12591;SDS011;6361;52.120;5.108;2022-11-06T09:35:54;8.25;;;2.42;;
12591;SDS011;6361;52.120;5.108;2022-11-06T09:38:20;7.45;;;2.20;;
12591;SDS011;6361;52.120;5.108;2022-11-06T09:40:55;7.57;;;2.88;;
12591;SDS011;6361;52.120;5.108;2022-11-06T09:48:49;6.25;;;2.03;;
12591;SDS011;6361;52.120;5.108;2022-11-06T09:51:26;6.97;;;2.40;;
12591;SDS011;6361;52.120;5.108;2022-11-06T09:53:59;8.65;;;2.13;;
12591;SDS011;6361;52.120;5.108;2022-11-06T09:56:30;10.77;;;2.10;;
12591;SDS011;6361;52.120;5.108;2022-11-06T09:58:58;10.07;;;2.08;;
12591;SDS011;6361;52.120;5.108;2022-11-06T10:01:34;5.90;;;2.20;;
12591;SDS011;6361;52.120;5.108;2022-11-06T10:04:04;8.73;;;2.40;;
12591;SDS011;6361;52.120;5.108;2022-11-06T10:06:30;5.47;;;2.05;;
12591;SDS011;6361;52.120;5.108;2022-11-06T10:09:00;7.57;;;2.40;;
12591;SDS011;6361;52.120;5.108;2022-11-06T10:11:30;10.93;;;2.40;;
12591;SDS011;6361;52.120;5.108;2022-11-06T10:14:27;8.98;;;2.47;;
12591;SDS011;6361;52.120;5.108;2022-11-06T10:19:56;8.25;;;2.85;;
12591;SDS011;6361;52.120;5.108;2022-11-06T10:25:17;6.05;;;2.40;;
12591;SDS011;6361;52.120;5.108;2022-11-06T10:33:22;9.02;;;2.47;;
12591;SDS011;6361;52.120;5.108;2022-11-06T10:36:04;5.70;;;2.35;;
12591;SDS011;6361;52.120;5.108;2022-11-06T10:38:39;8.07;;;2.08;;
12591;SDS011;6361;52.120;5.108;2022-11-06T10:41:13;5.55;;;2.00;;
12591;SDS011;6361;52.120;5.108;2022-11-06T10:44:07;7.05;;;2.00;;
12591;SDS011;6361;52.120;5.108;2022-11-06T10:46:51;8.77;;;2.30;;
12591;SDS011;6361;52.120;5.108;2022-11-06T10:55:08;11.60;;;2.65;;
12591;SDS011;6361;52.120;5.108;2022-11-06T10:57:45;9.55;;;2.47;;
12591;SDS011;6361;52.120;5.108;2022-11-06T11:00:13;5.63;;;2.22;;
12591;SDS011;6361;52.120;5.108;2022-11-06T11:02:39;7.32;;;2.20;;
12591;SDS011;6361;52.120;5.108;2022-11-06T11:05:18;6.90;;;2.35;;
12591;SDS011;6361;52.120;5.108;2022-11-06T11:07:45;9.48;;;2.88;;
12591;SDS011;6361;52.120;5.108;2022-11-06T11:12:58;8.52;;;2.22;;
12591;SDS011;6361;52.120;5.108;2022-11-06T11:15:25;9.02;;;2.70;;
12591;SDS011;6361;52.120;5.108;2022-11-06T11:18:11;7.18;;;2.00;;
12591;SDS011;6361;52.120;5.108;2022-11-06T11:20:42;12.55;;;2.45;;
12591;SDS011;6361;52.120;5.108;2022-11-06T11:28:31;7.03;;;2.38;;
12591;SDS011;6361;52.120;5.108;2022-11-06T11:33:32;8.93;;;2.38;;
12591;SDS011;6361;52.120;5.108;2022-11-06T11:35:57;6.30;;;2.30;;
12591;SDS011;6361;52.120;5.108;2022-11-06T11:38:23;10.00;;;2.30;;
12591;SDS011;6361;52.120;5.108;2022-11-06T11:40:50;10.13;;;2.30;;
12591;SDS011;6361;52.120;5.108;2022-11-06T11:46:00;10.02;;;2.55;;
12591;SDS011;6361;52.120;5.108;2022-11-06T11:48:26;6.22;;;2.03;;
12591;SDS011;6361;52.120;5.108;2022-11-06T11:50:53;10.40;;;2.58;;
12591;SDS011;6361;52.120;5.108;2022-11-06T11:53:19;4.80;;;2.28;;
12591;SDS011;6361;52.120;5.108;2022-11-06T11:55:47;9.32;;;3.00;;
12591;SDS011;6361;52.120;5.108;2022-11-06T12:00:54;5.25;;;2.20;;
12591;SDS011;6361;52.120;5.108;2022-11-06T12:03:21;7.88;;;2.33;;
12591;SDS011;6361;52.120;5.108;2022-11-06T12:05:49;8.10;;;2.28;;
12591;SDS011;6361;52.120;5.108;2022-11-06T12:08:23;8.82;;;2.28;;
12591;SDS011;6361;52.120;5.108;2022-11-06T12:10:49;5.28;;;2.28;;
12591;SDS011;6361;52.120;5.108;2022-11-06T12:13:15;5.80;;;2.50;;
12591;SDS011;6361;52.120;5.108;2022-11-06T12:15:49;9.10;;;2.33;;
12591;SDS011;6361;52.120;5.108;2022-11-06T12:20:48;4.53;;;2.08;;
12591;SDS011;6361;52.120;5.108;2022-11-06T12:28:47;12.75;;;2.50;;
12591;SDS011;6361;52.120;5.108;2022-11-06T12:34:10;6.93;;;2.30;;
12591;SDS011;6361;52.120;5.108;2022-11-06T12:36:42;9.00;;;2.63;;
12591;SDS011;6361;52.120;5.108;2022-11-06T12:39:11;5.63;;;2.13;;
12591;SDS011;6361;52.120;5.108;2022-11-06T12:41:39;5.60;;;2.00;;
12591;SDS011;6361;52.120;5.108;2022-11-06T12:44:08;7.32;;;2.00;;
12591;SDS011;6361;52.120;5.108;2022-11-06T12:54:51;4.68;;;1.70;;
12591;SDS011;6361;52.120;5.108;2022-11-06T13:00:18;5.93;;;2.17;;
12591;SDS011;6361;52.120;5.108;2022-11-06T13:05:30;7.07;;;2.10;;
12591;SDS011;6361;52.120;5.108;2022-11-06T13:08:07;9.55;;;2.42;;
12591;SDS011;6361;52.120;5.108;2022-11-06T13:16:10;6.03;;;2.30;;
12591;SDS011;6361;52.120;5.108;2022-11-06T13:24:11;7.78;;;2.60;;
12591;SDS011;6361;52.120;5.108;2022-11-06T13:26:41;10.98;;;2.70;;
12591;SDS011;6361;52.120;5.108;2022-11-06T13:29:11;8.68;;;2.58;;
12591;SDS011;6361;52.120;5.108;2022-11-06T13:31:40;9.32;;;2.75;;
12591;SDS011;6361;52.120;5.108;2022-11-06T13:34:07;9.20;;;2.50;;
12591;SDS011;6361;52.120;5.108;2022-11-06T13:36:41;6.60;;;2.33;;
12591;SDS011;6361;52.120;5.108;2022-11-06T13:39:21;9.48;;;2.28;;
12591;SDS011;6361;52.120;5.108;2022-11-06T13:41:51;5.13;;;2.20;;
12591;SDS011;6361;52.120;5.108;2022-11-06T13:44:16;15.48;;;6.10;;
12591;SDS011;6361;52.120;5.108;2022-11-06T13:49:31;7.27;;;3.73;;
12591;SDS011;6361;52.120;5.108;2022-11-06T13:52:01;9.38;;;2.72;;
12591;SDS011;6361;52.120;5.108;2022-11-06T13:54:51;9.95;;;3.40;;
12591;SDS011;6361;52.120;5.108;2022-11-06T14:05:39;10.07;;;3.03;;
12591;SDS011;6361;52.120;5.108;2022-11-06T14:08:13;9.45;;;2.90;;
12591;SDS011;6361;52.120;5.108;2022-11-06T14:10:55;8.93;;;2.47;;
12591;SDS011;6361;52.120;5.108;2022-11-06T14:13:27;13.45;;;2.90;;
12591;SDS011;6361;52.120;5.108;2022-11-06T14:16:00;9.33;;;2.70;;
12591;SDS011;6361;52.120;5.108;2022-11-06T14:18:29;9.63;;;2.72;;
12591;SDS011;6361;52.120;5.108;2022-11-06T14:24:04;8.38;;;2.42;;
12591;SDS011;6361;52.120;5.108;2022-11-06T14:26:49;10.65;;;2.70;;
12591;SDS011;6361;52.120;5.108;2022-11-06T14:32:08;10.65;;;2.70;;
12591;SDS011;6361;52.120;5.108;2022-11-06T14:34:39;10.32;;;2.80;;
12591;SDS011;6361;52.120;5.108;2022-11-06T14:44:55;8.63;;;3.00;;
12591;SDS011;6361;52.120;5.108;2022-11-06T14:47:41;7.75;;;2.85;;
12591;SDS011;6361;52.120;5.108;2022-11-06T14:52:52;11.00;;;2.85;;
12591;SDS011;6361;52.120;5.108;2022-11-06T14:55:26;9.45;;;2.63;;
12591;SDS011;6361;52.120;5.108;2022-11-06T14:57:54;8.13;;;2.42;;
12591;SDS011;6361;52.120;5.108;2022-11-06T15:03:13;11.50;;;3.67;;
12591;SDS011;6361;52.120;5.108;2022-11-06T15:05:42;8.02;;;2.92;;
12591;SDS011;6361;52.120;5.108;2022-11-06T15:08:08;10.25;;;2.25;;
12591;SDS011;6361;52.120;5.108;2022-11-06T15:13:11;12.05;;;2.60;;
12591;SDS011;6361;52.120;5.108;2022-11-06T15:15:47;11.32;;;2.50;;
12591;SDS011;6361;52.120;5.108;2022-11-06T15:18:19;11.82;;;2.90;;
12591;SDS011;6361;52.120;5.108;2022-11-06T15:20:57;11.30;;;2.58;;
12591;SDS011;6361;52.120;5.108;2022-11-06T15:23:30;10.75;;;2.78;;
12591;SDS011;6361;52.120;5.108;2022-11-06T15:26:03;6.25;;;2.45;;
12591;SDS011;6361;52.120;5.108;2022-11-06T15:28:44;8.48;;;2.67;;
12591;SDS011;6361;52.120;5.108;2022-11-06T15:31:12;9.45;;;3.42;;
12591;SDS011;6361;52.120;5.108;2022-11-06T15:34:01;10.38;;;2.88;;
12591;SDS011;6361;52.120;5.108;2022-11-06T15:36:27;8.35;;;2.92;;
12591;SDS011;6361;52.120;5.108;2022-11-06T15:38:53;8.70;;;2.90;;
12591;SDS011;6361;52.120;5.108;2022-11-06T15:41:19;9.30;;;2.50;;
12591;SDS011;6361;52.120;5.108;2022-11-06T15:43:47;8.60;;;2.92;;
12591;SDS011;6361;52.120;5.108;2022-11-06T15:46:15;10.05;;;3.50;;
12591;SDS011;6361;52.120;5.108;2022-11-06T15:49:04;9.90;;;3.07;;
12591;SDS011;6361;52.120;5.108;2022-11-06T15:51:48;13.60;;;3.70;;
12591;SDS011;6361;52.120;5.108;2022-11-06T15:54:23;9.65;;;2.83;;
12591;SDS011;6361;52.120;5.108;2022-11-06T15:56:54;9.57;;;3.85;;
12591;SDS011;6361;52.120;5.108;2022-11-06T15:59:19;10.52;;;3.55;;
12591;SDS011;6361;52.120;5.108;2022-11-06T16:01:48;8.77;;;3.30;;
12591;SDS011;6361;52.120;5.108;2022-11-06T16:04:14;8.40;;;3.10;;
12591;SDS011;6361;52.120;5.108;2022-11-06T16:06:42;7.43;;;2.88;;
12591;SDS011;6361;52.120;5.108;2022-11-06T16:09:15;7.10;;;3.00;;
12591;SDS011;6361;52.120;5.108;2022-11-06T16:11:44;7.75;;;2.80;;
12591;SDS011;6361;52.120;5.108;2022-11-06T16:14:11;8.10;;;3.15;;
12591;SDS011;6361;52.120;5.108;2022-11-06T16:19:05;8.63;;;3.10;;
12591;SDS011;6361;52.120;5.108;2022-11-06T16:21:40;8.65;;;3.38;;
12591;SDS011;6361;52.120;5.108;2022-11-06T16:24:10;10.90;;;4.47;;
12591;SDS011;6361;52.120;5.108;2022-11-06T16:26:37;9.50;;;3.85;;
12591;SDS011;6361;52.120;5.108;2022-11-06T16:29:23;7.82;;;3.22;;
12591;SDS011;6361;52.120;5.108;2022-11-06T16:31:58;7.35;;;3.40;;
12591;SDS011;6361;52.120;5.108;2022-11-06T16:37:05;4.18;;;2.80;;
12591;SDS011;6361;52.120;5.108;2022-11-06T16:54:46;7.18;;;3.00;;
12591;SDS011;6361;52.120;5.108;2022-11-06T16:57:34;7.70;;;3.00;;
12591;SDS011;6361;52.120;5.108;2022-11-06T17:02:33;4.90;;;2.78;;
12591;SDS011;6361;52.120;5.108;2022-11-06T17:07:41;7.05;;;3.08;;
12591;SDS011;6361;52.120;5.108;2022-11-06T17:13:17;9.70;;;4.88;;
12591;SDS011;6361;52.120;5.108;2022-11-06T17:18:40;5.70;;;2.95;;
12591;SDS011;6361;52.120;5.108;2022-11-06T17:21:10;6.78;;;3.00;;
12591;SDS011;6361;52.120;5.108;2022-11-06T17:23:37;8.93;;;3.30;;
12591;SDS011;6361;52.120;5.108;2022-11-06T17:26:04;6.45;;;2.97;;
12591;SDS011;6361;52.120;5.108;2022-11-06T17:28:31;8.70;;;3.58;;
12591;SDS011;6361;52.120;5.108;2022-11-06T17:30:56;6.53;;;3.20;;
12591;SDS011;6361;52.120;5.108;2022-11-06T17:33:22;6.45;;;3.40;;
12591;SDS011;6361;52.120;5.108;2022-11-06T17:35:47;6.22;;;3.53;;
12591;SDS011;6361;52.120;5.108;2022-11-06T17:38:13;7.15;;;3.58;;
12591;SDS011;6361;52.120;5.108;2022-11-06T17:40:39;6.72;;;3.40;;
12591;SDS011;6361;52.120;5.108;2022-11-06T17:43:05;5.07;;;3.30;;
12591;SDS011;6361;52.120;5.108;2022-11-06T17:45:31;7.10;;;3.13;;
12591;SDS011;6361;52.120;5.108;2022-11-06T17:47:56;6.15;;;3.25;;
12591;SDS011;6361;52.120;5.108;2022-11-06T17:50:22;8.43;;;3.67;;
12591;SDS011;6361;52.120;5.108;2022-11-06T17:52:47;7.72;;;3.50;;
12591;SDS011;6361;52.120;5.108;2022-11-06T17:55:12;7.00;;;3.40;;
12591;SDS011;6361;52.120;5.108;2022-11-06T17:57:38;6.78;;;3.47;;
12591;SDS011;6361;52.120;5.108;2022-11-06T18:00:03;7.80;;;3.58;;
12591;SDS011;6361;52.120;5.108;2022-11-06T18:02:30;8.23;;;4.38;;
12591;SDS011;6361;52.120;5.108;2022-11-06T18:04:56;8.57;;;3.75;;
12591;SDS011;6361;52.120;5.108;2022-11-06T18:07:22;6.40;;;3.70;;
12591;SDS011;6361;52.120;5.108;2022-11-06T18:09:47;8.07;;;3.63;;